Time;durP1;ratioP1;P1;durP2;ratioP2;P2;SDS_P1;SDS_P2;PMS_P1;PMS_P2;Temp;Humidity;BMP_temperature;BMP_pressure;BME280_temperature;BME280_humidity;BME280_pressure;Samples;Min_cycle;Max_cycle;Signal;HPM_P1;HPM_P2
2021/08/21 00:00:03;;;;;;;19.83;5.05;;;39.20;30.40;;;;;;5073042;28;20069;-59
2021/08/21 00:02:29;;;;;;;10.38;3.55;;;39.10;30.50;;;;;;5077379;28;20075;-60
2021/08/21 00:04:56;;;;;;;18.00;3.88;;;39.00;30.40;;;;;;5074067;28;20097;-61
2021/08/21 00:07:22;;;;;;;15.15;3.70;;;39.00;30.40;;;;;;5072117;28;20126;-60
2021/08/21 00:09:51;;;;;;;18.67;3.78;;;39.10;30.10;;;;;;5075805;28;20100;-59
2021/08/21 00:12:18;;;;;;;10.65;3.70;;;38.80;29.70;;;;;;5074517;28;20081;-58
2021/08/21 00:14:45;;;;;;;10.35;3.40;;;38.70;29.60;;;;;;5073623;28;20096;-57
2021/08/21 00:17:11;;;;;;;18.23;3.80;;;38.60;29.00;;;;;;5076606;28;20077;-60
2021/08/21 00:19:38;;;;;;;14.75;3.47;;;38.50;28.90;;;;;;5074438;28;20108;-58
2021/08/21 00:22:13;;;;;;;20.30;3.50;;;38.40;28.90;;;;;;5076759;28;20160;-62
2021/08/21 00:24:40;;;;;;;9.50;2.90;;;38.30;29.00;;;;;;5077531;28;20076;-60
2021/08/21 00:27:07;;;;;;;18.27;3.22;;;38.40;29.60;;;;;;5075499;28;20080;-60
2021/08/21 00:29:34;;;;;;;15.10;3.33;;;38.20;29.10;;;;;;5074908;28;20073;-59
2021/08/21 00:32:01;;;;;;;9.60;3.13;;;38.30;28.80;;;;;;5072419;28;20103;-54
2021/08/21 00:34:28;;;;;;;23.98;4.15;;;38.30;28.40;;;;;;5071076;28;20111;-58
2021/08/21 00:36:54;;;;;;;12.10;3.58;;;38.10;29.40;;;;;;5075096;28;20130;-57
2021/08/21 00:39:21;;;;;;;11.43;3.08;;;38.20;29.40;;;;;;5076700;28;20065;-63
2021/08/21 00:41:48;;;;;;;18.60;3.55;;;38.00;29.80;;;;;;5082480;28;20117;-62
2021/08/21 00:44:15;;;;;;;9.15;2.53;;;37.90;29.80;;;;;;5074166;28;20073;-58
2021/08/21 00:47:05;;;;;;;8.90;3.05;;;37.90;30.10;;;;;;5080411;28;20579;-59
2021/08/21 00:49:35;;;;;;;16.38;3.38;;;37.70;30.70;;;;;;5073361;28;20084;-59
2021/08/21 00:52:05;;;;;;;10.25;3.00;;;37.70;30.80;;;;;;5075607;28;20127;-59
2021/08/21 00:54:32;;;;;;;18.15;3.60;;;37.60;30.60;;;;;;5073937;28;20095;-59
2021/08/21 00:57:01;;;;;;;14.38;3.10;;;37.70;30.50;;;;;;5077552;28;20171;-59
2021/08/21 00:59:36;;;;;;;10.85;3.03;;;37.50;30.80;;;;;;5072803;28;20084;-57
2021/08/21 01:02:07;;;;;;;6.33;2.93;;;37.50;30.90;;;;;;5086263;28;20405;-59
2021/08/21 01:04:40;;;;;;;9.70;2.80;;;37.30;30.90;;;;;;5072126;28;20130;-59
2021/08/21 01:07:11;;;;;;;13.80;3.17;;;37.30;30.70;;;;;;5075797;28;20104;-58
2021/08/21 01:09:42;;;;;;;8.23;2.92;;;37.10;30.90;;;;;;5074914;28;20073;-58
2021/08/21 01:12:13;;;;;;;11.40;3.60;;;37.10;29.90;;;;;;5071632;28;20082;-56
2021/08/21 01:14:41;;;;;;;16.25;3.70;;;37.00;29.80;;;;;;5071203;28;20073;-57
2021/08/21 01:17:08;;;;;;;11.38;3.60;;;36.90;30.00;;;;;;5075720;28;20073;-58
2021/08/21 01:19:40;;;;;;;13.02;3.60;;;36.60;30.30;;;;;;5073138;28;20115;-56
2021/08/21 01:22:16;;;;;;;13.98;2.97;;;36.90;31.10;;;;;;5079857;28;20484;-58
2021/08/21 01:24:50;;;;;;;8.63;3.72;;;36.60;32.50;;;;;;5075580;28;20112;-57
2021/08/21 01:27:22;;;;;;;12.15;3.05;;;36.40;32.00;;;;;;5070861;28;20085;-59
2021/08/21 01:29:50;;;;;;;8.45;3.10;;;36.40;32.60;;;;;;5073327;28;20124;-57
2021/08/21 01:32:18;;;;;;;12.98;3.80;;;36.10;33.10;;;;;;5077452;28;20087;-59
2021/08/21 01:34:46;;;;;;;14.10;4.10;;;36.10;33.50;;;;;;5073052;28;20085;-57
2021/08/21 01:37:22;;;;;;;9.98;3.05;;;36.00;32.70;;;;;;5073805;28;20118;-58
2021/08/21 01:39:52;;;;;;;13.52;3.60;;;35.80;33.00;;;;;;5075395;28;20134;-58
2021/08/21 01:42:19;;;;;;;11.85;3.22;;;35.70;33.00;;;;;;5076830;28;20756;-58
2021/08/21 01:44:46;;;;;;;12.43;3.33;;;35.60;32.80;;;;;;5075935;28;20076;-59
2021/08/21 01:47:13;;;;;;;12.77;2.97;;;35.40;33.30;;;;;;5074820;28;20096;-57
2021/08/21 01:49:49;;;;;;;16.02;3.22;;;35.50;33.50;;;;;;5078988;28;20073;-57
2021/08/21 01:52:16;;;;;;;8.55;3.17;;;35.40;34.30;;;;;;5080429;28;20084;-56
2021/08/21 01:54:42;;;;;;;21.50;3.58;;;35.40;34.30;;;;;;5076458;28;20108;-57
2021/08/21 01:57:09;;;;;;;17.92;4.32;;;35.30;34.90;;;;;;5077779;28;20115;-59
2021/08/21 01:59:37;;;;;;;8.43;3.33;;;35.10;35.60;;;;;;5076909;28;20083;-54
2021/08/21 02:02:13;;;;;;;10.23;3.72;;;35.00;35.30;;;;;;5075087;28;20086;-57
2021/08/21 02:04:39;;;;;;;14.40;3.47;;;35.00;35.40;;;;;;5080921;28;20073;-57
2021/08/21 02:07:06;;;;;;;11.38;3.50;;;35.00;35.70;;;;;;5075669;28;20073;-57
2021/08/21 02:09:34;;;;;;;16.08;3.30;;;35.00;35.40;;;;;;5078325;28;20077;-59
2021/08/21 02:12:03;;;;;;;10.63;2.83;;;34.90;35.40;;;;;;5075569;28;20163;-58
2021/08/21 02:14:30;;;;;;;15.93;3.03;;;34.70;35.60;;;;;;5076783;28;20069;-58
2021/08/21 02:17:00;;;;;;;19.38;3.95;;;34.50;35.50;;;;;;5082217;28;20529;-59
2021/08/21 02:19:27;;;;;;;22.60;3.28;;;34.50;35.90;;;;;;5078005;28;20108;-58
2021/08/21 02:21:56;;;;;;;26.40;3.97;;;34.60;36.30;;;;;;5084118;28;20073;-59
2021/08/21 02:24:26;;;;;;;21.70;3.80;;;34.50;36.40;;;;;;5082603;28;20069;-58
2021/08/21 02:27:01;;;;;;;21.45;3.38;;;34.50;36.70;;;;;;5079703;28;20513;-56
2021/08/21 02:29:29;;;;;;;24.30;3.83;;;34.40;37.00;;;;;;5076797;28;20079;-60
2021/08/21 02:31:56;;;;;;;21.67;4.22;;;34.20;37.50;;;;;;5075560;28;20093;-59
2021/08/21 02:34:28;;;;;;;29.17;4.97;;;34.20;37.70;;;;;;5076600;28;20084;-59
2021/08/21 02:36:55;;;;;;;30.23;4.40;;;34.20;38.10;;;;;;5075636;28;20103;-59
2021/08/21 02:39:22;;;;;;;22.80;4.07;;;34.10;39.00;;;;;;5077225;28;20538;-58
2021/08/21 02:41:48;;;;;;;19.38;5.20;;;34.10;39.20;;;;;;5074484;28;20077;-57
2021/08/21 02:44:15;;;;;;;23.48;4.85;;;34.00;39.40;;;;;;5076679;28;20092;-58
2021/08/21 02:46:41;;;;;;;18.67;4.20;;;33.90;39.80;;;;;;5073022;28;20134;-57
2021/08/21 02:49:08;;;;;;;17.65;3.85;;;33.80;40.40;;;;;;5076835;28;20131;-59
2021/08/21 02:51:34;;;;;;;31.58;5.10;;;33.80;40.80;;;;;;5076169;28;20445;-59
2021/08/21 02:54:01;;;;;;;32.22;5.03;;;33.70;41.30;;;;;;5079257;28;20064;-59
2021/08/21 02:56:28;;;;;;;32.90;5.90;;;33.70;41.60;;;;;;5077486;28;20068;-57
2021/08/21 02:58:54;;;;;;;23.45;6.03;;;33.70;41.70;;;;;;5074983;28;20081;-59
2021/08/21 03:01:21;;;;;;;23.25;5.53;;;33.70;42.20;;;;;;5074412;28;20148;-57
2021/08/21 03:03:47;;;;;;;37.67;4.93;;;33.60;42.30;;;;;;5076843;28;20660;-57
2021/08/21 03:06:14;;;;;;;39.55;6.35;;;33.50;42.40;;;;;;5078077;28;20089;-58
2021/08/21 03:08:40;;;;;;;26.70;4.80;;;33.50;42.70;;;;;;5080983;28;20103;-56
2021/08/21 03:11:07;;;;;;;30.23;5.07;;;33.40;42.80;;;;;;5076950;28;20580;-58
2021/08/21 03:13:33;;;;;;;27.00;4.57;;;33.30;42.80;;;;;;5077043;28;20080;-57
2021/08/21 03:16:00;;;;;;;34.75;5.22;;;33.30;43.00;;;;;;5077055;28;20088;-58
2021/08/21 03:18:26;;;;;;;35.58;5.80;;;33.30;43.50;;;;;;5076313;28;20469;-58
2021/08/21 03:20:53;;;;;;;27.58;5.72;;;33.20;43.80;;;;;;5091606;28;20085;-58
2021/08/21 03:23:20;;;;;;;39.83;5.90;;;33.20;44.10;;;;;;5078518;28;20126;-59
2021/08/21 03:25:46;;;;;;;26.65;5.40;;;33.10;44.20;;;;;;5074690;28;20080;-59
2021/08/21 03:28:12;;;;;;;29.70;5.25;;;33.00;44.70;;;;;;5074773;28;20556;-56
2021/08/21 03:30:39;;;;;;;38.90;5.22;;;32.90;45.20;;;;;;5080315;28;20092;-58
2021/08/21 03:33:09;;;;;;;40.92;5.97;;;32.90;45.60;;;;;;5077613;28;20073;-59
2021/08/21 03:35:35;;;;;;;30.92;5.80;;;32.90;45.90;;;;;;5073702;28;20084;-58
2021/08/21 03:38:02;;;;;;;34.67;5.60;;;32.70;46.00;;;;;;5075626;28;20162;-59
2021/08/21 03:40:29;;;;;;;39.78;5.60;;;32.80;46.40;;;;;;5075622;28;20077;-59
2021/08/21 03:42:56;;;;;;;27.70;5.47;;;32.70;47.10;;;;;;5072348;28;20403;-58
2021/08/21 03:45:22;;;;;;;36.08;5.53;;;32.70;48.00;;;;;;5076446;28;20070;-56
2021/08/21 03:47:49;;;;;;;34.25;5.82;;;32.60;48.90;;;;;;5077442;28;20083;-57
2021/08/21 03:50:15;;;;;;;33.10;5.75;;;32.50;49.40;;;;;;5073695;28;20104;-54
2021/08/21 03:52:42;;;;;;;43.20;6.07;;;32.50;49.90;;;;;;5078061;28;20486;-58
2021/08/21 03:55:09;;;;;;;33.30;6.45;;;32.30;50.90;;;;;;5078794;28;20578;-58
2021/08/21 03:57:35;;;;;;;30.45;6.75;;;32.30;51.50;;;;;;5075175;28;20073;-58
2021/08/21 04:00:04;;;;;;;34.10;7.13;;;32.30;52.20;;;;;;5076633;28;20069;-57
2021/08/21 04:02:30;;;;;;;22.00;7.50;;;32.20;52.80;;;;;;5077017;28;20083;-57
2021/08/21 04:04:57;;;;;;;35.90;6.63;;;32.20;53.20;;;;;;5078033;28;20077;-58
2021/08/21 04:07:23;;;;;;;28.92;5.80;;;32.10;53.80;;;;;;5076836;28;20073;-58
2021/08/21 04:09:50;;;;;;;27.52;5.78;;;32.00;54.10;;;;;;5073987;28;20085;-58
2021/08/21 04:12:18;;;;;;;26.75;5.28;;;31.90;54.20;;;;;;5076542;28;20180;-58
2021/08/21 04:14:48;;;;;;;30.55;6.13;;;31.90;54.40;;;;;;5071440;28;20089;-60
2021/08/21 04:17:14;;;;;;;26.88;6.68;;;31.90;54.50;;;;;;5073115;28;20130;-58
2021/08/21 04:19:41;;;;;;;29.15;6.07;;;31.80;54.60;;;;;;5078567;28;20117;-57
2021/08/21 04:22:08;;;;;;;31.98;6.10;;;31.70;54.70;;;;;;5075794;28;20081;-57
2021/08/21 04:24:34;;;;;;;23.42;5.38;;;31.60;54.80;;;;;;5074820;28;20085;-54
2021/08/21 04:27:01;;;;;;;22.23;5.43;;;31.60;55.20;;;;;;5074839;28;20490;-56
2021/08/21 04:29:27;;;;;;;27.58;5.47;;;31.50;55.20;;;;;;5091503;28;20519;-57
2021/08/21 04:31:54;;;;;;;29.90;4.90;;;31.50;55.00;;;;;;5071905;28;20117;-56
2021/08/21 04:34:21;;;;;;;21.45;4.50;;;31.50;55.00;;;;;;5079013;28;20077;-56
2021/08/21 04:36:47;;;;;;;28.80;4.55;;;31.40;55.00;;;;;;5073777;28;20546;-58
2021/08/21 04:39:14;;;;;;;23.73;5.22;;;31.40;54.90;;;;;;5078855;28;20073;-56
2021/08/21 04:41:40;;;;;;;26.05;4.90;;;31.30;54.90;;;;;;5073564;28;20073;-58
2021/08/21 04:44:06;;;;;;;25.27;4.97;;;31.30;55.20;;;;;;5076838;28;20072;-59
2021/08/21 04:46:35;;;;;;;16.15;4.80;;;31.30;55.50;;;;;;5074851;28;20085;-58
2021/08/21 04:49:02;;;;;;;23.77;6.00;;;31.20;55.80;;;;;;5074796;28;20648;-59
2021/08/21 04:51:28;;;;;;;24.27;5.68;;;31.20;55.70;;;;;;5075482;28;20096;-59
2021/08/21 04:53:55;;;;;;;17.15;5.43;;;31.20;55.40;;;;;;5079650;28;20510;-58
2021/08/21 04:56:21;;;;;;;15.25;5.55;;;31.10;55.30;;;;;;5073178;28;20129;-59
2021/08/21 04:58:48;;;;;;;23.60;5.75;;;31.00;54.90;;;;;;5074668;28;20065;-59
2021/08/21 05:01:14;;;;;;;24.65;5.80;;;31.00;54.90;;;;;;5078007;28;20133;-59
2021/08/21 05:03:41;;;;;;;19.08;6.20;;;31.00;54.80;;;;;;5073779;28;20126;-57
2021/08/21 05:06:07;;;;;;;22.13;5.88;;;30.90;55.00;;;;;;5075189;28;20441;-56
2021/08/21 05:08:34;;;;;;;19.27;5.45;;;30.70;55.40;;;;;;5076870;28;20528;-57
2021/08/21 05:11:02;;;;;;;17.52;5.65;;;30.80;55.70;;;;;;5076511;28;20449;-54
2021/08/21 05:13:28;;;;;;;19.77;4.90;;;30.80;55.90;;;;;;5073303;28;20163;-58
2021/08/21 05:15:55;;;;;;;23.40;4.93;;;30.70;56.20;;;;;;5073067;28;20151;-58
2021/08/21 05:18:36;;;;;;;19.73;4.60;;;30.60;56.70;;;;;;5077634;28;20068;-56
2021/08/21 05:21:07;;;;;;;22.20;5.72;;;30.50;57.10;;;;;;5075703;28;21286;-57
2021/08/21 05:23:38;;;;;;;17.33;5.45;;;30.50;57.40;;;;;;5074573;28;20198;-59
2021/08/21 05:26:05;;;;;;;26.13;6.07;;;30.50;57.80;;;;;;5075619;28;20080;-59
2021/08/21 05:28:32;;;;;;;21.98;6.35;;;30.40;58.10;;;;;;5077919;28;20068;-58
2021/08/21 05:30:59;;;;;;;25.40;7.85;;;30.40;58.50;;;;;;5077077;28;20096;-59
2021/08/21 05:33:27;;;;;;;25.90;7.72;;;30.40;59.10;;;;;;5076567;28;20426;-58
2021/08/21 05:35:54;;;;;;;30.60;8.00;;;30.30;59.50;;;;;;5075161;28;20073;-58
2021/08/21 05:38:21;;;;;;;19.80;8.25;;;30.20;59.70;;;;;;5074099;28;20073;-57
2021/08/21 05:40:47;;;;;;;22.35;7.43;;;30.10;60.80;;;;;;5079540;28;20134;-55
2021/08/21 05:43:14;;;;;;;27.55;7.43;;;30.10;60.40;;;;;;5078202;28;20413;-57
2021/08/21 05:45:41;;;;;;;20.40;6.60;;;30.10;60.70;;;;;;5079766;28;20530;-58
2021/08/21 05:48:08;;;;;;;23.80;6.15;;;30.10;60.60;;;;;;5074858;28;20565;-60
2021/08/21 05:50:34;;;;;;;18.60;5.60;;;30.00;60.60;;;;;;5073233;28;20453;-57
2021/08/21 05:53:01;;;;;;;17.65;4.90;;;30.00;60.60;;;;;;5072801;28;20070;-58
2021/08/21 05:55:28;;;;;;;21.67;5.30;;;30.00;61.00;;;;;;5078730;28;20441;-56
2021/08/21 05:57:54;;;;;;;17.38;4.45;;;30.00;61.20;;;;;;5076228;28;20160;-58
2021/08/21 06:00:22;;;;;;;18.10;4.28;;;29.90;62.10;;;;;;5069941;28;20581;-58
2021/08/21 06:02:48;;;;;;;17.42;4.63;;;30.00;61.50;;;;;;5074055;28;20449;-57
2021/08/21 06:05:15;;;;;;;33.13;5.28;;;30.00;61.40;;;;;;5076927;28;20085;-53
2021/08/21 06:07:41;;;;;;;16.75;4.45;;;30.00;61.50;;;;;;5072663;28;20076;-58
2021/08/21 06:10:08;;;;;;;21.38;4.47;;;29.80;61.90;;;;;;5076439;28;20135;-59
2021/08/21 06:12:36;;;;;;;18.13;4.43;;;29.80;62.30;;;;;;5076392;28;20089;-59
2021/08/21 06:15:03;;;;;;;19.27;4.40;;;29.80;62.40;;;;;;5073190;28;20083;-58
2021/08/21 06:17:30;;;;;;;21.35;4.22;;;29.90;62.30;;;;;;5074093;28;20103;-58
2021/08/21 06:19:57;;;;;;;20.20;4.97;;;29.80;62.30;;;;;;5079730;28;20109;-61
2021/08/21 06:22:24;;;;;;;18.75;5.65;;;29.80;62.20;;;;;;5074872;28;20077;-56
2021/08/21 06:24:51;;;;;;;21.08;5.47;;;29.70;62.50;;;;;;5076446;28;20518;-57
2021/08/21 06:27:18;;;;;;;16.70;5.90;;;29.70;62.90;;;;;;5071970;28;20077;-58
2021/08/21 06:29:45;;;;;;;20.58;6.25;;;29.70;62.80;;;;;;5073343;28;20079;-59
2021/08/21 06:32:11;;;;;;;16.88;5.80;;;29.70;63.10;;;;;;5079039;28;20073;-58
2021/08/21 06:34:38;;;;;;;15.75;5.47;;;29.60;63.20;;;;;;5092386;28;20073;-58
2021/08/21 06:37:08;;;;;;;17.80;5.00;;;29.60;63.70;;;;;;5070936;28;20077;-59
2021/08/21 06:39:35;;;;;;;30.15;5.28;;;29.70;64.00;;;;;;5071085;28;20078;-60
2021/08/21 06:42:03;;;;;;;12.38;4.50;;;29.60;64.30;;;;;;5075232;28;20073;-57
2021/08/21 06:44:29;;;;;;;14.15;4.10;;;29.50;64.80;;;;;;5077940;28;20077;-58
2021/08/21 06:46:56;;;;;;;10.38;4.28;;;29.40;65.40;;;;;;5078254;28;20077;-57
2021/08/21 06:49:23;;;;;;;12.10;3.20;;;29.40;65.80;;;;;;5075105;28;20070;-58
2021/08/21 06:51:50;;;;;;;10.50;3.90;;;29.40;66.20;;;;;;5076133;28;20089;-55
2021/08/21 06:54:16;;;;;;;11.10;3.45;;;29.40;66.30;;;;;;5077173;28;20078;-59
2021/08/21 06:56:43;;;;;;;8.70;3.28;;;29.40;66.80;;;;;;5076238;28;20077;-58
2021/08/21 06:59:09;;;;;;;11.68;3.30;;;29.20;67.50;;;;;;5076761;28;20073;-62
2021/08/21 07:01:39;;;;;;;11.23;4.38;;;29.20;68.20;;;;;;5077826;28;20073;-57
2021/08/21 07:04:06;;;;;;;11.07;3.65;;;29.20;68.70;;;;;;5079702;28;20441;-57
2021/08/21 07:06:32;;;;;;;9.90;3.13;;;29.20;68.90;;;;;;5076206;28;20099;-59
2021/08/21 07:08:59;;;;;;;14.73;3.50;;;29.10;69.50;;;;;;5078609;28;20824;-58
2021/08/21 07:11:25;;;;;;;13.30;3.50;;;29.10;69.70;;;;;;5076027;28;20230;-56
2021/08/21 07:13:52;;;;;;;11.82;3.75;;;29.00;70.50;;;;;;5077110;28;20130;-59
2021/08/21 07:16:19;;;;;;;13.48;3.40;;;29.00;70.80;;;;;;5074790;28;20091;-58
2021/08/21 07:18:45;;;;;;;10.32;4.20;;;29.00;71.10;;;;;;5075528;28;20112;-57
2021/08/21 07:21:12;;;;;;;11.27;3.88;;;29.00;71.50;;;;;;5073127;28;20073;-58
2021/08/21 07:23:39;;;;;;;9.25;3.88;;;29.00;71.80;;;;;;5083225;28;20080;-57
2021/08/21 07:26:06;;;;;;;15.43;4.10;;;29.00;72.40;;;;;;5073575;28;20071;-58
2021/08/21 07:28:32;;;;;;;14.07;4.20;;;29.00;72.90;;;;;;5076991;28;20584;-58
2021/08/21 07:31:00;;;;;;;8.07;4.10;;;29.00;73.10;;;;;;5095050;28;20183;-59
2021/08/21 07:33:28;;;;;;;17.30;4.50;;;28.90;73.20;;;;;;5091085;28;20113;-59
2021/08/21 07:35:55;;;;;;;18.50;4.70;;;28.90;73.90;;;;;;5075143;28;20076;-59
2021/08/21 07:38:22;;;;;;;17.13;4.35;;;28.90;74.30;;;;;;5076821;28;20411;-58
2021/08/21 07:40:48;;;;;;;15.82;5.18;;;28.80;74.60;;;;;;5076877;28;20445;-58
2021/08/21 07:43:15;;;;;;;15.95;4.65;;;28.80;75.10;;;;;;5079826;28;20530;-59
2021/08/21 07:45:43;;;;;;;18.90;5.47;;;28.80;75.10;;;;;;5076319;28;20198;-60
2021/08/21 07:48:09;;;;;;;13.48;4.97;;;28.70;75.90;;;;;;5077551;28;20146;-58
2021/08/21 07:50:36;;;;;;;21.33;5.35;;;28.70;75.90;;;;;;5077315;28;20229;-56
2021/08/21 07:53:02;;;;;;;18.30;5.15;;;28.60;76.20;;;;;;5072926;28;20070;-54
2021/08/21 07:55:29;;;;;;;15.45;5.68;;;28.60;76.60;;;;;;5073203;28;20077;-57
2021/08/21 07:57:55;;;;;;;15.73;4.50;;;28.50;76.70;;;;;;5078113;28;20075;-58
2021/08/21 08:00:22;;;;;;;18.88;4.28;;;28.50;76.70;;;;;;5083078;28;20069;-57
2021/08/21 08:02:49;;;;;;;12.32;5.13;;;28.50;76.80;;;;;;5077369;28;20068;-54
2021/08/21 08:05:15;;;;;;;16.25;5.07;;;28.40;76.80;;;;;;5073778;28;20449;-54
2021/08/21 08:07:42;;;;;;;15.00;4.90;;;28.30;77.30;;;;;;5071250;28;20150;-56
2021/08/21 08:10:09;;;;;;;12.85;4.88;;;28.30;77.30;;;;;;5076500;28;20096;-60
2021/08/21 08:12:36;;;;;;;15.60;5.93;;;28.30;77.90;;;;;;5073079;28;20146;-57
2021/08/21 08:15:03;;;;;;;11.35;5.30;;;28.30;78.10;;;;;;5074026;28;20594;-58
2021/08/21 08:17:30;;;;;;;15.63;5.90;;;28.30;78.30;;;;;;5078687;28;20405;-59
2021/08/21 08:19:57;;;;;;;7.90;4.97;;;28.20;78.60;;;;;;5076158;28;20143;-56
2021/08/21 08:22:25;;;;;;;13.30;5.95;;;28.20;79.10;;;;;;5076698;28;20073;-55
2021/08/21 08:24:51;;;;;;;16.17;6.22;;;28.20;79.20;;;;;;5074998;28;20069;-57
2021/08/21 08:27:18;;;;;;;13.80;5.93;;;28.20;79.40;;;;;;5075034;28;20139;-55
2021/08/21 08:29:45;;;;;;;12.05;5.60;;;28.10;79.80;;;;;;5076529;28;20605;-58
2021/08/21 08:32:12;;;;;;;10.10;5.07;;;28.00;80.00;;;;;;5074867;28;20085;-57
2021/08/21 08:34:38;;;;;;;11.73;4.78;;;28.00;80.30;;;;;;5077701;28;20122;-57
2021/08/21 08:37:09;;;;;;;14.57;5.18;;;28.00;80.20;;;;;;5077893;28;20081;-55
2021/08/21 08:39:36;;;;;;;13.57;4.80;;;28.10;80.00;;;;;;5077191;28;20081;-53
2021/08/21 08:42:03;;;;;;;12.45;4.40;;;28.10;80.20;;;;;;5073904;28;20434;-58
2021/08/21 08:44:32;;;;;;;19.10;4.60;;;28.00;80.60;;;;;;5072209;28;20084;-55
2021/08/21 08:47:00;;;;;;;17.33;4.95;;;28.10;80.60;;;;;;5076390;28;20076;-57
2021/08/21 08:49:28;;;;;;;10.95;4.65;;;28.00;80.70;;;;;;5075409;28;20383;-56
2021/08/21 08:51:55;;;;;;;9.68;4.10;;;28.00;80.80;;;;;;5073216;28;20461;-58
2021/08/21 08:54:22;;;;;;;11.20;4.18;;;28.00;81.10;;;;;;5075932;28;20545;-53
2021/08/21 08:56:49;;;;;;;11.35;4.63;;;28.00;81.50;;;;;;5075455;28;20134;-58
2021/08/21 08:59:15;;;;;;;12.60;4.32;;;28.00;81.40;;;;;;5080445;28;20069;-55
2021/08/21 09:01:43;;;;;;;12.27;4.38;;;28.00;81.30;;;;;;5074238;28;20069;-58
2021/08/21 09:04:22;;;;;;;10.15;4.20;;;28.00;81.70;;;;;;5074206;28;20545;-56
2021/08/21 09:06:51;;;;;;;12.00;4.25;;;27.90;81.80;;;;;;5072272;28;20072;-57
2021/08/21 09:09:19;;;;;;;11.38;3.90;;;27.90;81.80;;;;;;5073623;28;20077;-58
2021/08/21 09:11:50;;;;;;;13.82;4.50;;;27.90;82.10;;;;;;5071964;28;20415;-56
2021/08/21 09:14:19;;;;;;;10.80;4.10;;;27.90;82.40;;;;;;5069685;28;20061;-56
2021/08/21 09:16:46;;;;;;;14.00;3.95;;;28.00;82.40;;;;;;5076914;28;20514;-57
2021/08/21 09:19:23;;;;;;;11.55;3.90;;;27.90;82.30;;;;;;5074982;28;20565;-55
2021/08/21 09:22:10;;;;;;;16.75;3.83;;;27.80;82.90;;;;;;5075910;28;20450;-55
2021/08/21 09:24:37;;;;;;;10.75;3.75;;;27.80;83.40;;;;;;5076005;28;20530;-56
2021/08/21 09:27:18;;;;;;;13.63;4.28;;;27.80;84.40;;;;;;5074402;28;20069;-56
2021/08/21 09:29:47;;;;;;;13.18;4.43;;;27.80;83.80;;;;;;5071978;28;20077;-58
2021/08/21 09:32:13;;;;;;;10.38;3.88;;;27.90;84.00;;;;;;5070048;28;20116;-57
2021/08/21 09:34:40;;;;;;;7.97;3.42;;;27.80;84.10;;;;;;5082210;28;20470;-58
2021/08/21 09:37:10;;;;;;;12.48;3.83;;;27.90;84.40;;;;;;5071248;28;20077;-59
2021/08/21 09:39:41;;;;;;;9.35;4.15;;;27.80;84.60;;;;;;5078756;28;20160;-57
2021/08/21 09:42:10;;;;;;;13.90;4.38;;;27.80;85.00;;;;;;5075092;28;20073;-55
2021/08/21 09:44:44;;;;;;;12.88;4.38;;;27.80;85.00;;;;;;5070241;28;20101;-57
2021/08/21 09:47:23;;;;;;;9.70;3.95;;;27.80;85.50;;;;;;5074351;28;20069;-59
2021/08/21 09:49:51;;;;;;;12.20;3.88;;;27.80;85.60;;;;;;5071923;28;20543;-57
2021/08/21 09:52:18;;;;;;;13.07;3.92;;;27.70;86.00;;;;;;5071635;28;20085;-57
2021/08/21 09:55:05;;;;;;;9.32;3.83;;;27.70;86.70;;;;;;5071231;28;20557;-57
2021/08/21 09:57:32;;;;;;;9.32;3.72;;;27.70;86.00;;;;;;5075167;28;20160;-58
2021/08/21 10:00:00;;;;;;;10.13;3.67;;;27.70;86.60;;;;;;5077872;28;20091;-58
2021/08/21 10:02:31;;;;;;;9.05;3.67;;;27.70;86.60;;;;;;5068604;28;20069;-57
2021/08/21 10:04:59;;;;;;;13.18;4.45;;;27.80;86.70;;;;;;5074772;28;20134;-53
2021/08/21 10:07:36;;;;;;;9.20;3.45;;;27.70;87.50;;;;;;5075184;28;20069;-56
2021/08/21 10:10:03;;;;;;;;;;;27.80;86.90;;;;;;5074277;28;20470;-58
2021/08/21 10:12:32;;;;;;;7.05;3.65;;;27.80;86.70;;;;;;5069511;28;19965;-57
2021/08/21 10:14:59;;;;;;;16.10;3.50;;;27.80;86.80;;;;;;5074263;28;20077;-58
2021/08/21 10:17:27;;;;;;;10.15;3.90;;;27.80;87.10;;;;;;5071266;28;20537;-57
2021/08/21 10:19:55;;;;;;;11.77;4.45;;;27.70;87.20;;;;;;5070926;28;20126;-58
2021/08/21 10:22:26;;;;;;;12.73;3.47;;;27.80;87.70;;;;;;5077249;28;20165;-57
2021/08/21 10:24:54;;;;;;;10.27;3.75;;;27.80;87.30;;;;;;5073805;28;20530;-58
2021/08/21 10:27:38;;;;;;;11.23;3.65;;;27.80;87.10;;;;;;5078079;28;20111;-57
2021/08/21 10:30:08;;;;;;;12.23;3.78;;;27.80;88.20;;;;;;5075758;28;20089;-57
2021/08/21 10:32:43;;;;;;;7.85;3.25;;;27.70;88.10;;;;;;5072495;28;20080;-56
2021/08/21 10:35:12;;;;;;;8.88;4.20;;;27.70;87.80;;;;;;5079871;28;20126;-55
2021/08/21 10:37:43;;;;;;;11.90;3.78;;;27.70;87.50;;;;;;5075481;28;20085;-58
2021/08/21 10:40:28;;;;;;;9.30;4.22;;;27.80;87.60;;;;;;5078074;28;20121;-56
2021/08/21 10:42:57;;;;;;;9.20;3.58;;;27.60;87.90;;;;;;5074058;28;20553;-57
2021/08/21 10:45:42;;;;;;;10.45;3.75;;;27.70;88.20;;;;;;5075765;28;20142;-60
2021/08/21 10:48:34;;;;;;;8.68;3.78;;;27.60;87.90;;;;;;5073034;28;20073;-58
2021/08/21 10:51:04;;;;;;;10.48;3.47;;;27.60;88.20;;;;;;5078435;28;20453;-56
2021/08/21 10:53:32;;;;;;;9.30;3.70;;;27.60;88.40;;;;;;5074601;28;20108;-57
2021/08/21 10:56:04;;;;;;;8.82;3.80;;;27.50;88.70;;;;;;5076667;28;20075;-58
2021/08/21 10:58:31;;;;;;;13.50;3.47;;;27.60;88.70;;;;;;5077179;28;20122;-60
2021/08/21 11:01:07;;;;;;;13.80;3.40;;;27.60;88.40;;;;;;5074033;28;20203;-56
2021/08/21 11:03:34;;;;;;;14.95;4.28;;;27.60;88.00;;;;;;5077724;28;20081;-55
2021/08/21 11:06:07;;;;;;;8.38;3.72;;;27.60;87.90;;;;;;5074219;28;20159;-54
2021/08/21 11:08:57;;;;;;;8.88;3.35;;;27.60;87.90;;;;;;5079407;28;20083;-58
2021/08/21 11:12:11;;;;;;;14.60;3.38;;;27.60;88.20;;;;;;5077516;28;20558;-58
2021/08/21 11:14:25;;;;;;;11.65;3.92;;;27.50;88.00;;;;;;5069823;28;20531;-59
2021/08/21 11:16:57;;;;;;;13.45;3.97;;;27.40;88.60;;;;;;5073398;28;20073;-57
2021/08/21 11:19:46;;;;;;;14.88;4.07;;;27.40;88.80;;;;;;5070398;28;20450;-59
2021/08/21 11:22:21;;;;;;;10.80;3.60;;;27.40;88.50;;;;;;5072794;28;20069;-58
2021/08/21 11:24:56;;;;;;;10.40;4.20;;;27.30;88.70;;;;;;5078025;28;20585;-58
2021/08/21 11:27:25;;;;;;;12.90;3.88;;;27.30;88.40;;;;;;5075771;28;20079;-56
2021/08/21 11:32:55;;;;;;;8.02;3.58;;;27.20;89.00;;;;;;5074619;28;20089;-59
2021/08/21 11:35:35;;;;;;;15.43;3.60;;;27.30;89.10;;;;;;5075115;28;20072;-59
2021/08/21 11:38:04;;;;;;;10.40;3.67;;;27.30;88.70;;;;;;5078435;28;20112;-57
2021/08/21 11:40:44;;;;;;;11.77;4.45;;;27.30;88.60;;;;;;5078036;28;20095;-58
2021/08/21 11:43:16;;;;;;;14.45;4.50;;;27.20;88.70;;;;;;5076255;28;20175;-57
2021/08/21 11:45:43;;;;;;;13.43;4.13;;;27.10;89.50;;;;;;5072627;28;20069;-57
2021/08/21 11:48:11;;;;;;;11.55;4.20;;;27.10;90.00;;;;;;5073908;28;20085;-58
2021/08/21 11:50:40;;;;;;;13.73;4.00;;;27.10;90.10;;;;;;5074498;28;20116;-56
2021/08/21 11:53:10;;;;;;;10.70;4.25;;;27.00;90.40;;;;;;5072999;28;20470;-57
2021/08/21 11:55:38;;;;;;;7.47;3.72;;;27.00;90.60;;;;;;5075376;28;20114;-55
2021/08/21 11:58:07;;;;;;;10.20;3.90;;;27.00;90.70;;;;;;5076647;28;20080;-58
2021/08/21 12:00:36;;;;;;;8.65;4.05;;;27.00;90.90;;;;;;5074341;28;20084;-58
2021/08/21 12:03:06;;;;;;;8.65;3.65;;;27.00;90.90;;;;;;5076920;28;20547;-56
2021/08/21 12:05:39;;;;;;;9.50;4.05;;;27.00;90.90;;;;;;5075189;28;20113;-56
2021/08/21 12:08:21;;;;;;;13.32;4.03;;;27.00;90.90;;;;;;5080446;28;20073;-56
2021/08/21 12:10:59;;;;;;;10.18;3.95;;;27.10;90.80;;;;;;5073394;28;20169;-55
2021/08/21 12:13:36;;;;;;;13.05;4.03;;;27.20;90.60;;;;;;5073280;28;20073;-57
2021/08/21 12:16:11;;;;;;;10.05;3.85;;;27.20;90.70;;;;;;5079836;28;20081;-57
2021/08/21 12:18:40;;;;;;;8.60;3.28;;;27.10;91.00;;;;;;5072324;28;20100;-55
2021/08/21 12:21:15;;;;;;;12.18;4.28;;;27.00;91.30;;;;;;5070909;28;20429;-55
2021/08/21 12:23:45;;;;;;;9.13;3.33;;;27.00;91.20;;;;;;5075346;28;20076;-58
2021/08/21 12:26:11;;;;;;;10.07;3.60;;;27.00;91.40;;;;;;5080400;28;20077;-58
2021/08/21 12:28:42;;;;;;;10.68;4.13;;;27.00;91.40;;;;;;5077185;28;20121;-56
2021/08/21 12:31:14;;;;;;;10.85;3.95;;;27.00;91.40;;;;;;5075811;28;20097;-59
2021/08/21 12:33:44;;;;;;;10.05;4.00;;;27.00;91.60;;;;;;5077643;28;20080;-59
2021/08/21 12:36:13;;;;;;;11.60;3.78;;;27.00;91.50;;;;;;5071174;28;20073;-55
2021/08/21 12:38:57;;;;;;;12.00;3.95;;;27.00;91.40;;;;;;5073860;28;20203;-58
2021/08/21 12:41:24;;;;;;;9.93;3.83;;;26.90;91.50;;;;;;5072390;28;20105;-57
2021/08/21 12:44:14;;;;;;;12.60;4.45;;;27.00;91.80;;;;;;5075463;28;20539;-57
2021/08/21 12:46:51;;;;;;;13.32;4.57;;;27.00;91.80;;;;;;5073848;28;20084;-59
2021/08/21 12:49:37;;;;;;;12.50;4.22;;;27.00;91.80;;;;;;5076383;28;20080;-56